Time;durP1;ratioP1;P1;durP2;ratioP2;P2;SDS_P1;SDS_P2;PMS_P1;PMS_P2;Temp;Humidity;BMP_temperature;BMP_pressure;BME280_temperature;BME280_humidity;BME280_pressure;Samples;Min_cycle;Max_cycle;Signal;HPM_P1;HPM_P2
2022/09/02 00:01:32;;;;;;;6.57;1.50;;;;;;;22.94;78.25;101572.78;5075917;28;20029;-50
2022/09/02 00:04:01;;;;;;;4.90;1.40;;;;;;;22.88;79.56;101570.00;5080492;28;20052;-50
2022/09/02 00:06:28;;;;;;;4.43;1.23;;;;;;;22.82;83.05;101571.06;5078447;28;20040;-51
2022/09/02 00:08:54;;;;;;;4.13;1.43;;;;;;;22.69;81.48;101576.94;5078933;28;20069;-52
2022/09/02 00:11:23;;;;;;;2.97;1.08;;;;;;;22.70;83.74;101568.53;5077371;28;20117;-53
2022/09/02 00:13:49;;;;;;;2.37;0.93;;;;;;;22.62;79.99;101561.63;5077357;28;20433;-52
2022/09/02 00:16:16;;;;;;;6.43;1.30;;;;;;;22.64;81.50;101569.56;5080041;28;20058;-55
2022/09/02 00:18:43;;;;;;;4.10;1.30;;;;;;;22.65;81.05;101568.47;5077974;28;20104;-55
2022/09/02 00:21:12;;;;;;;5.47;1.30;;;;;;;22.64;83.07;101566.84;5069266;28;20051;-51
2022/09/02 00:23:39;;;;;;;3.77;1.20;;;;;;;22.63;83.43;101573.38;5076266;28;20045;-53
2022/09/02 00:26:05;;;;;;;9.37;1.23;;;;;;;22.49;84.21;101571.06;5077915;28;20025;-53
2022/09/02 00:28:30;;;;;;;4.40;1.08;;;;;;;22.53;82.67;101557.75;5075676;28;20033;-54
2022/09/02 00:30:56;;;;;;;2.63;1.23;;;;;;;22.58;82.85;101559.69;5071530;28;20041;-56
2022/09/02 00:33:22;;;;;;;4.93;1.02;;;;;;;22.60;79.97;101568.41;5071982;28;20044;-55
2022/09/02 00:35:49;;;;;;;2.42;0.93;;;;;;;22.56;80.52;101561.84;5075596;28;20033;-54
2022/09/02 00:38:14;;;;;;;;;;;;;;;22.45;80.41;101571.78;5074192;28;20040;-56
2022/09/02 00:40:45;;;;;;;2.13;0.90;;;;;;;22.47;80.13;101559.59;5075296;28;19913;-52
2022/09/02 00:43:10;;;;;;;2.17;1.20;;;;;;;22.35;82.48;101556.16;5070208;28;20048;-54
2022/09/02 00:45:36;;;;;;;3.25;1.27;;;;;;;22.41;81.22;101557.88;5071627;28;20045;-55
2022/09/02 00:48:04;;;;;;;;;;;;;;;22.39;81.60;101557.31;5074177;28;20033;-54
2022/09/02 00:50:33;;;;;;;2.70;0.95;;;;;;;22.39;81.36;101551.88;5074196;28;19931;-52
2022/09/02 00:53:05;;;;;;;8.90;1.00;;;;;;;22.21;82.87;101550.31;5076157;28;20041;-52
2022/09/02 00:55:35;;;;;;;1.73;0.90;;;;;;;22.27;83.34;101548.47;5075488;28;20033;-56
2022/09/02 00:58:12;;;;;;;2.20;0.90;;;;;;;22.23;84.02;101547.34;5076847;28;20096;-54
2022/09/02 01:00:44;;;;;;;2.92;0.88;;;;;;;22.16;84.67;101544.81;5081822;28;20036;-56
2022/09/02 01:03:15;;;;;;;4.33;1.00;;;;;;;22.14;86.25;101538.81;5075807;28;20075;-54
2022/09/02 01:05:44;;;;;;;2.53;1.20;;;;;;;21.98;86.88;101537.81;5080995;28;20092;-52
2022/09/02 01:08:13;;;;;;;2.07;1.17;;;;;;;22.00;86.75;101544.66;5081833;28;20070;-52
2022/09/02 01:10:40;;;;;;;9.53;1.00;;;;;;;21.92;87.13;101543.22;5078689;28;20084;-54
2022/09/02 01:13:09;;;;;;;5.57;1.10;;;;;;;21.82;87.55;101532.19;5081531;28;20112;-55
2022/09/02 01:15:39;;;;;;;5.87;1.10;;;;;;;21.85;89.17;101534.41;5082240;28;20029;-51
2022/09/02 01:18:08;;;;;;;5.03;1.00;;;;;;;21.77;88.15;101529.44;5077833;28;20029;-52
2022/09/02 01:20:34;;;;;;;4.13;1.20;;;;;;;21.67;89.37;101534.72;5077220;28;20071;-54
2022/09/02 01:23:01;;;;;;;7.88;1.20;;;;;;;21.58;89.88;101527.00;5077228;28;20037;-52
2022/09/02 01:25:32;;;;;;;4.17;1.30;;;;;;;21.39;92.79;101531.94;5083057;28;20096;-49
2022/09/02 01:28:04;;;;;;;4.10;1.10;;;;;;;21.50;91.19;101535.59;5076595;28;20040;-52
2022/09/02 01:30:31;;;;;;;4.20;1.20;;;;;;;21.42;90.50;101531.41;5079990;28;20292;-51
2022/09/02 01:32:57;;;;;;;;;;;;;;;21.28;89.84;101528.25;5079415;28;20055;-54
2022/09/02 01:35:22;;;;;;;2.63;0.97;;;;;;;21.22;91.41;101528.41;5078478;28;19913;-52
2022/09/02 01:37:48;;;;;;;3.63;1.20;;;;;;;21.31;90.61;101532.34;5081183;28;20035;-52
2022/09/02 01:40:16;;;;;;;13.27;1.40;;;;;;;21.19;91.45;101530.56;5076621;28;20052;-53
2022/09/02 01:42:43;;;;;;;2.47;1.20;;;;;;;21.17;90.42;101527.28;5078895;28;20048;-56
2022/09/02 01:45:10;;;;;;;6.57;1.07;;;;;;;21.10;90.31;101520.38;5075842;28;20279;-54
2022/09/02 01:47:37;;;;;;;18.83;1.70;;;;;;;21.05;91.04;101519.22;5078683;28;20281;-53
2022/09/02 01:50:08;;;;;;;1.70;1.10;;;;;;;21.09;90.43;101516.00;5079839;28;20329;-53
2022/09/02 01:52:34;;;;;;;3.43;0.97;;;;;;;20.98;92.31;101518.56;5080117;28;20033;-55
2022/09/02 01:55:00;;;;;;;3.83;1.03;;;;;;;21.08;91.49;101517.88;5093291;28;20293;-55
2022/09/02 01:57:26;;;;;;;5.22;1.38;;;;;;;21.13;93.85;101525.31;5079373;28;20273;-54
2022/09/02 01:59:53;;;;;;;7.60;1.30;;;;;;;21.06;91.77;101518.16;5080702;28;20032;-54
2022/09/02 02:02:19;;;;;;;5.00;1.40;;;;;;;21.16;90.71;101516.63;5082546;28;20090;-54
2022/09/02 02:04:46;;;;;;;5.75;1.52;;;;;;;20.96;93.55;101525.31;5077049;28;20278;-52
2022/09/02 02:07:14;;;;;;;3.47;1.27;;;;;;;20.97;93.03;101524.25;5079807;28;20040;-55
2022/09/02 02:09:41;;;;;;;3.87;1.23;;;;;;;20.81;93.32;101525.91;5061954;28;20341;-53
2022/09/02 02:12:07;;;;;;;10.63;1.13;;;;;;;20.85;96.34;101517.00;5079198;28;20300;-53
2022/09/02 02:14:34;;;;;;;4.30;1.10;;;;;;;20.73;93.92;101519.78;5080290;28;20278;-52
2022/09/02 02:16:59;;;;;;;7.40;1.40;;;;;;;20.69;95.06;101526.78;5079589;28;20345;-55
2022/09/02 02:19:26;;;;;;;2.92;1.55;;;;;;;20.88;96.86;101518.41;5077964;28;20029;-58
2022/09/02 02:21:51;;;;;;;6.75;1.70;;;;;;;20.91;95.36;101524.19;5078829;28;20051;-53
2022/09/02 02:24:17;;;;;;;5.55;2.03;;;;;;;21.03;93.40;101515.09;5080045;28;20041;-55
2022/09/02 02:26:44;;;;;;;5.20;2.10;;;;;;;21.06;94.90;101514.59;5079300;28;20066;-55
2022/09/02 02:29:10;;;;;;;;;;;;;;;20.85;94.05;101516.19;5077969;28;20048;-53
2022/09/02 02:31:37;;;;;;;5.65;1.17;;;;;;;20.94;99.81;101514.69;5078039;28;19923;-53
2022/09/02 02:34:03;;;;;;;;;;;;;;;21.00;96.07;101505.56;5078702;28;20053;-49
2022/09/02 02:36:29;;;;;;;9.20;1.67;;;;;;;20.83;97.25;101515.63;5075260;28;19923;-54
2022/09/02 02:38:54;;;;;;;7.82;2.53;;;;;;;20.78;97.57;101514.44;5078625;28;20037;-53
2022/09/02 02:41:20;;;;;;;21.50;11.50;;;;;;;20.69;97.26;101510.47;5078921;28;20060;-51
2022/09/02 02:43:46;;;;;;;;;;;;;;;20.55;98.94;101511.91;5080694;28;20074;-51
2022/09/02 02:46:14;;;;;;;8.00;1.40;;;;;;;20.56;100.00;101505.38;5074842;28;19917;-51
2022/09/02 02:48:40;;;;;;;1.83;1.13;;;;;;;20.54;99.03;101507.53;5079946;28;20112;-54
2022/09/02 02:51:08;;;;;;;4.63;1.13;;;;;;;20.43;99.10;101504.63;5079907;28;20327;-56
2022/09/02 02:53:35;;;;;;;;;;;;;;;20.42;100.00;101504.88;5079509;28;20285;-55
2022/09/02 02:56:01;;;;;;;2.50;1.40;;;;;;;20.45;99.62;101504.41;5080009;28;19912;-55
2022/09/02 02:58:27;;;;;;;5.07;1.10;;;;;;;20.49;98.69;101500.09;5079743;28;20062;-55
2022/09/02 03:00:54;;;;;;;2.07;1.10;;;;;;;20.43;100.00;101501.91;5075229;28;20304;-52
2022/09/02 03:03:21;;;;;;;3.43;1.13;;;;;;;20.45;100.00;101497.06;5074721;28;20270;-55
2022/09/02 03:05:51;;;;;;;4.30;1.27;;;;;;;20.41;100.00;101493.19;5073351;28;20281;-55
2022/09/02 03:08:19;;;;;;;2.70;1.00;;;;;;;20.41;99.93;101490.47;5076961;28;20277;-55
2022/09/02 03:10:50;;;;;;;3.63;1.10;;;;;;;20.31;100.00;101493.84;5080117;28;20276;-54
2022/09/02 03:13:15;;;;;;;11.47;1.00;;;;;;;20.32;100.00;101483.81;5077994;28;20336;-54
2022/09/02 03:15:43;;;;;;;3.87;1.00;;;;;;;20.30;100.00;101485.94;5076187;28;20273;-56
2022/09/02 03:18:09;;;;;;;5.80;1.58;;;;;;;20.28;100.00;101488.06;5077461;28;20292;-55
2022/09/02 03:20:35;;;;;;;2.55;0.95;;;;;;;20.21;100.00;101485.53;5078888;28;20029;-55
2022/09/02 03:23:03;;;;;;;13.83;4.47;;;;;;;20.32;100.00;101484.63;5076995;28;20024;-54
2022/09/02 03:25:33;;;;;;;6.67;1.37;;;;;;;20.23;100.00;101485.25;5076246;28;20281;-56
2022/09/02 03:28:03;;;;;;;3.03;1.20;;;;;;;20.14;100.00;101485.66;5079263;28;20258;-56
2022/09/02 03:30:31;;;;;;;7.53;3.27;;;;;;;20.16;100.00;101480.81;5079777;28;20273;-55
2022/09/02 03:32:59;;;;;;;4.43;1.93;;;;;;;20.02;100.00;101482.19;5075480;28;20360;-53
2022/09/02 03:35:27;;;;;;;8.53;4.10;;;;;;;20.04;100.00;101489.03;5078874;28;20285;-54
2022/09/02 03:37:53;;;;;;;5.90;2.43;;;;;;;20.05;100.00;101481.69;5074209;28;20288;-54
2022/09/02 03:40:22;;;;;;;3.10;1.30;;;;;;;20.13;100.00;101473.16;5078194;28;20313;-53
2022/09/02 03:42:51;;;;;;;10.27;4.43;;;;;;;20.02;100.00;101474.03;5074905;28;20064;-53
2022/09/02 03:45:17;;;;;;;4.72;1.90;;;;;;;20.13;100.00;101478.59;5075715;28;20281;-53
2022/09/02 03:47:49;;;;;;;3.80;1.58;;;;;;;20.05;100.00;101476.25;5080488;28;20029;-56
2022/09/02 03:50:19;;;;;;;6.43;1.57;;;;;;;20.12;100.00;101478.81;5074619;28;20029;-54
2022/09/02 03:52:46;;;;;;;4.03;1.73;;;;;;;19.99;100.00;101469.94;5077236;28;20275;-51
2022/09/02 03:55:13;;;;;;;;;;;;;;;19.99;100.00;101472.66;5077896;28;20299;-55
2022/09/02 03:57:39;;;;;;;3.33;1.47;;;;;;;19.87;100.00;101469.97;5077624;28;19919;-55
2022/09/02 04:00:07;;;;;;;;;;;;;;;20.27;100.00;101473.66;5075849;28;20277;-54
2022/09/02 04:02:40;;;;;;;4.60;2.00;;;;;;;20.19;100.00;101469.47;5077906;28;19913;-54
2022/09/02 04:05:11;;;;;;;5.27;1.70;;;;;;;20.17;100.00;101466.16;5077663;28;20273;-54
2022/09/02 04:07:39;;;;;;;4.87;2.27;;;;;;;20.29;100.00;101463.38;5080568;28;21952;-54
2022/09/02 04:10:07;;;;;;;2.47;1.50;;;;;;;20.24;100.00;101466.03;5078058;28;20266;-54
2022/09/02 04:12:35;;;;;;;5.47;1.80;;;;;;;20.32;100.00;101456.66;5076592;28;20300;-53
2022/09/02 04:15:06;;;;;;;13.00;5.37;;;;;;;20.17;100.00;101463.44;5076584;28;20275;-56
2022/09/02 04:17:34;;;;;;;4.93;2.57;;;;;;;20.25;100.00;101455.97;5072651;28;20290;-53
2022/09/02 04:20:03;;;;;;;20.10;9.07;;;;;;;20.34;100.00;101454.50;5076408;28;20309;-54
2022/09/02 04:22:31;;;;;;;6.73;2.10;;;;;;;20.15;100.00;101452.03;5072446;28;20325;-54
2022/09/02 04:24:58;;;;;;;4.65;1.90;;;;;;;20.22;100.00;101453.75;5075594;28;20275;-54
2022/09/02 04:27:23;;;;;;;6.68;2.30;;;;;;;20.29;100.00;101457.13;5075198;28;20043;-54
2022/09/02 04:29:49;;;;;;;2.75;1.38;;;;;;;20.20;100.00;101451.28;5078804;28;20044;-54
2022/09/02 04:32:14;;;;;;;3.57;1.63;;;;;;;20.30;100.00;101453.34;5079637;28;20112;-55
2022/09/02 04:34:41;;;;;;;2.83;1.20;;;;;;;20.14;100.00;101458.53;5078351;28;20266;-51
2022/09/02 04:37:08;;;;;;;4.33;1.67;;;;;;;20.28;100.00;101458.19;5078704;28;20043;-53
2022/09/02 04:39:33;;;;;;;7.55;1.50;;;;;;;20.19;100.00;101450.44;5083708;28;20278;-56
2022/09/02 04:42:00;;;;;;;3.67;1.47;;;;;;;20.39;100.00;101461.91;5080731;28;20032;-54
2022/09/02 04:44:27;;;;;;;5.53;1.23;;;;;;;20.31;100.00;101452.28;5081226;28;20290;-52
2022/09/02 04:46:53;;;;;;;3.15;1.25;;;;;;;20.36;100.00;101452.38;5081284;28;20277;-56
2022/09/02 04:49:20;;;;;;;3.03;1.10;;;;;;;20.52;99.95;101458.03;5081893;28;20029;-54
2022/09/02 04:51:53;;;;;;;7.87;1.73;;;;;;;20.59;100.00;101453.28;5082704;28;20261;-55
2022/09/02 04:54:20;;;;;;;4.77;2.17;;;;;;;20.55;100.00;101442.06;5081370;28;20262;-56
2022/09/02 04:56:49;;;;;;;4.77;1.90;;;;;;;20.59;100.00;101448.63;5080081;28;20273;-54
2022/09/02 04:59:15;;;;;;;4.37;1.50;;;;;;;20.57;99.70;101447.25;5078306;28;20320;-56
2022/09/02 05:01:49;;;;;;;4.43;1.03;;;;;;;20.57;98.64;101449.97;5072160;28;20290;-55
2022/09/02 05:04:19;;;;;;;5.20;1.20;;;;;;;20.55;97.59;101447.50;5073402;28;20297;-54
2022/09/02 05:06:49;;;;;;;6.00;1.97;;;;;;;20.61;97.26;101448.41;5078262;28;20353;-54
2022/09/02 05:09:17;;;;;;;5.53;1.30;;;;;;;20.66;97.08;101442.22;5074912;28;20259;-50
2022/09/02 05:11:47;;;;;;;5.03;1.17;;;;;;;20.60;97.25;101444.84;5075892;28;20334;-55
2022/09/02 05:14:15;;;;;;;3.50;1.00;;;;;;;20.55;98.08;101446.69;5076829;28;20279;-53
2022/09/02 05:16:41;;;;;;;6.13;1.33;;;;;;;20.54;97.89;101462.16;5079751;28;20274;-54
2022/09/02 05:19:12;;;;;;;2.47;1.23;;;;;;;20.61;97.03;101443.78;5082996;28;20285;-56
2022/09/02 05:21:43;;;;;;;7.37;1.47;;;;;;;20.76;97.03;101451.38;5078556;28;20249;-52
2022/09/02 05:24:13;;;;;;;4.70;1.00;;;;;;;20.76;95.22;101451.38;5078980;28;20294;-54
2022/09/02 05:26:43;;;;;;;7.93;1.55;;;;;;;20.89;94.94;101454.81;5078793;28;20281;-53
2022/09/02 05:29:11;;;;;;;4.50;1.23;;;;;;;20.87;94.32;101454.25;5077843;28;20056;-55
2022/09/02 05:31:39;;;;;;;5.10;1.70;;;;;;;20.86;94.74;101455.31;5078716;28;20270;-55
2022/09/02 05:34:06;;;;;;;4.07;1.47;;;;;;;20.92;93.49;101443.44;5081105;28;20285;-52
2022/09/02 05:36:32;;;;;;;10.03;2.30;;;;;;;20.96;93.63;101450.00;5079589;28;20332;-53
2022/09/02 05:38:59;;;;;;;3.75;1.17;;;;;;;20.99;93.23;101454.97;5078320;28;20320;-53
2022/09/02 05:41:26;;;;;;;4.03;1.30;;;;;;;21.00;93.69;101455.78;5076351;28;20067;-52
2022/09/02 05:43:59;;;;;;;3.43;1.23;;;;;;;20.88;93.49;101451.28;5074270;28;20290;-54
2022/09/02 05:46:26;;;;;;;5.27;1.00;;;;;;;20.96;93.12;101450.00;5076604;28;20269;-55
2022/09/02 05:49:27;;;;;;;4.63;1.10;;;;;;;20.98;93.80;101456.03;5074891;28;20102;-54
2022/09/02 05:51:57;;;;;;;7.83;1.33;;;;;;;21.01;92.82;101449.28;5075788;28;20286;-55
2022/09/02 05:54:35;;;;;;;2.10;1.10;;;;;;;21.00;92.84;101451.19;5075463;28;20938;-54
2022/09/02 05:57:12;;;;;;;3.67;1.30;;;;;;;20.97;93.62;101456.28;5075939;28;20024;-54
2022/09/02 05:59:43;;;;;;;3.33;1.30;;;;;;;20.99;94.04;101444.09;5078640;28;20272;-56
2022/09/02 06:02:16;;;;;;;7.57;1.30;;;;;;;21.09;92.79;101456.97;5077595;28;20260;-55
2022/09/02 06:04:46;;;;;;;8.20;1.53;;;;;;;20.85;94.22;101450.97;5078059;28;20025;-52
2022/09/02 06:07:16;;;;;;;6.97;1.40;;;;;;;20.84;94.81;101449.31;5078620;28;20254;-55
2022/09/02 06:09:45;;;;;;;5.17;1.20;;;;;;;20.79;95.66;101455.47;5095472;28;20029;-55
2022/09/02 06:12:12;;;;;;;5.53;1.40;;;;;;;20.80;95.86;101451.69;5078826;28;20035;-56
2022/09/02 06:14:41;;;;;;;3.27;1.20;;;;;;;20.86;95.88;101447.97;5081092;28;20044;-56
2022/09/02 06:17:09;;;;;;;7.77;1.97;;;;;;;20.91;95.18;101447.22;5083254;28;20029;-54
2022/09/02 06:19:39;;;;;;;7.53;1.60;;;;;;;20.90;94.77;101449.13;5078817;28;20021;-51
2022/09/02 06:22:07;;;;;;;6.17;1.63;;;;;;;20.98;94.71;101453.31;5081391;28;20027;-55
2022/09/02 06:24:35;;;;;;;9.00;1.53;;;;;;;21.29;92.54;101452.88;5075792;28;20262;-57
2022/09/02 06:27:07;;;;;;;3.00;1.33;;;;;;;21.42;92.06;101446.25;5073144;28;20055;-53
2022/09/02 06:29:36;;;;;;;10.47;1.93;;;;;;;21.55;91.33;101451.31;5072348;28;20032;-55
2022/09/02 06:32:04;;;;;;;8.17;1.63;;;;;;;21.53;91.04;101445.31;5075247;28;20037;-55
2022/09/02 06:34:30;;;;;;;2.78;1.17;;;;;;;21.53;91.85;101450.75;5076474;28;20096;-53
2022/09/02 06:36:56;;;;;;;2.45;1.08;;;;;;;21.58;90.94;101450.00;5072428;28;20048;-55
2022/09/02 06:39:24;;;;;;;9.73;1.70;;;;;;;21.62;90.58;101446.47;5075546;28;20040;-56
2022/09/02 06:41:51;;;;;;;7.50;1.40;;;;;;;21.68;89.59;101446.56;5075816;28;20029;-55
2022/09/02 06:44:20;;;;;;;3.90;1.33;;;;;;;21.79;89.31;101448.31;5077010;28;20047;-53
2022/09/02 06:46:53;;;;;;;7.93;1.80;;;;;;;21.91;88.58;101440.00;5078088;28;20024;-53
2022/09/02 06:49:19;;;;;;;2.03;1.07;;;;;;;22.03;86.98;101434.41;5075460;28;20043;-57
2022/09/02 06:51:48;;;;;;;8.73;1.73;;;;;;;22.05;87.59;101445.84;5076364;28;20025;-56
2022/09/02 06:54:17;;;;;;;11.30;2.07;;;;;;;22.01;87.41;101439.28;5071309;28;20100;-55
2022/09/02 06:56:45;;;;;;;4.90;1.50;;;;;;;22.17;86.66;101442.97;5073031;28;20097;-55
2022/09/02 06:59:10;;;;;;;;;;;;;;;22.09;86.93;101444.25;5078378;28;20024;-55
2022/09/02 07:01:51;;;;;;;5.93;1.40;;;;;;;22.30;86.51;101447.16;5075379;28;19923;-53
2022/09/02 07:07:07;;;;;;;11.13;1.50;;;;;;;22.58;84.90;101440.59;5074097;28;20025;-53
2022/09/02 07:09:39;;;;;;;10.70;1.43;;;;;;;22.56;84.74;101441.91;5090240;28;20032;-56
2022/09/02 07:12:09;;;;;;;5.00;1.37;;;;;;;22.70;83.39;101437.66;5076412;28;20029;-55
2022/09/02 07:14:42;;;;;;;5.53;1.23;;;;;;;22.65;84.12;101429.47;5076956;28;20052;-56
2022/09/02 07:17:16;;;;;;;7.77;1.37;;;;;;;22.68;83.83;101434.38;5081642;28;20025;-52
2022/09/02 07:19:42;;;;;;;6.03;1.80;;;;;;;22.70;83.03;101434.94;5073218;28;20051;-55
2022/09/02 07:22:09;;;;;;;14.43;1.80;;;;;;;22.84;82.65;101437.22;5076564;28;20021;-55
2022/09/02 07:24:40;;;;;;;7.27;1.33;;;;;;;22.82;83.20;101428.44;5072202;28;20028;-56
2022/09/02 07:27:06;;;;;;;7.53;1.40;;;;;;;23.00;81.45;101440.84;5079231;28;20078;-54
2022/09/02 07:29:33;;;;;;;;;;;;;;;23.00;80.66;101435.38;5080353;28;20028;-54
2022/09/02 07:31:59;;;;;;;11.77;2.00;;;;;;;23.08;80.57;101431.34;5079054;28;19979;-55
2022/09/02 07:34:28;;;;;;;11.57;1.40;;;;;;;23.13;80.84;101429.44;5080093;28;20029;-57
2022/09/02 07:36:54;;;;;;;3.30;1.30;;;;;;;23.20;80.48;101434.66;5076770;28;20078;-54
2022/09/02 07:39:22;;;;;;;10.70;1.50;;;;;;;23.23;79.14;101433.31;5078987;28;20032;-55
2022/09/02 07:41:50;;;;;;;7.90;1.60;;;;;;;23.46;78.15;101438.31;5080842;28;20045;-54
2022/09/02 07:44:19;;;;;;;5.70;1.60;;;;;;;23.48;78.51;101435.31;5079121;28;20063;-53
2022/09/02 07:46:46;;;;;;;6.47;1.73;;;;;;;23.54;78.28;101430.69;5077989;28;20424;-56
2022/09/02 07:49:13;;;;;;;5.97;1.60;;;;;;;23.69;76.76;101435.38;5074409;28;20048;-54
2022/09/02 07:51:43;;;;;;;11.63;1.67;;;;;;;23.69;77.48;101433.47;5075450;28;20055;-55
2022/09/02 07:54:10;;;;;;;5.97;1.87;;;;;;;23.91;76.63;101426.94;5077096;28;20099;-55
2022/09/02 07:56:36;;;;;;;6.67;1.70;;;;;;;23.88;76.91;101424.78;5075825;28;20052;-54
2022/09/02 07:59:02;;;;;;;7.43;1.70;;;;;;;23.86;76.47;101430.50;5079625;28;20025;-55
2022/09/02 08:01:29;;;;;;;7.37;1.60;;;;;;;23.96;76.07;101428.84;5078488;28;20028;-56
2022/09/02 08:03:56;;;;;;;6.67;1.57;;;;;;;24.00;76.17;101428.03;5080079;28;20568;-56
2022/09/02 08:06:27;;;;;;;6.23;1.77;;;;;;;23.99;75.90;101431.03;5080592;28;20025;-57
2022/09/02 08:08:54;;;;;;;7.97;2.13;;;;;;;23.99;75.86;101429.13;5076608;28;20032;-54
2022/09/02 08:11:20;;;;;;;8.27;1.83;;;;;;;24.11;75.27;101431.63;5078044;28;20064;-54
2022/09/02 08:13:45;;;;;;;;;;;;;;;24.03;75.66;101426.72;5080293;28;20043;-54
2022/09/02 08:16:11;;;;;;;7.93;2.20;;;;;;;23.96;76.20;101428.84;5078752;28;19912;-56
2022/09/02 08:18:37;;;;;;;12.20;2.30;;;;;;;23.96;75.89;101431.56;5078603;28;20032;-55
2022/09/02 08:21:03;;;;;;;15.10;2.13;;;;;;;23.87;77.25;101428.56;5077370;28;20055;-55
2022/09/02 08:23:29;;;;;;;12.60;1.70;;;;;;;23.78;77.80;101433.75;5080978;28;20029;-54
2022/09/02 08:25:58;;;;;;;4.77;1.53;;;;;;;23.99;77.24;101434.59;5073297;28;20060;-54
2022/09/02 08:28:24;;;;;;;4.60;1.73;;;;;;;23.99;77.10;101426.41;5080277;28;20475;-55
2022/09/02 08:30:50;;;;;;;12.73;1.80;;;;;;;24.07;76.82;101425.06;5078124;28;20032;-54
2022/09/02 08:33:15;;;;;;;13.00;2.33;;;;;;;24.11;76.57;101420.69;5075128;28;20036;-55
2022/09/02 08:35:41;;;;;;;5.75;1.90;;;;;;;24.19;75.95;101422.88;5071499;28;20029;-53
2022/09/02 08:38:06;;;;;;;6.07;1.70;;;;;;;24.34;75.14;101418.50;5070319;28;20083;-54
2022/09/02 08:40:38;;;;;;;;;;;;;;;24.40;74.53;101422.88;5067548;28;20036;-59
2022/09/02 08:43:24;;;;;;;8.60;1.63;;;;;;;24.48;74.21;101418.75;5067487;28;19917;-53
2022/09/02 08:45:53;;;;;;;9.40;1.42;;;;;;;24.60;73.91;101418.47;5070964;28;20037;-58
2022/09/02 08:48:26;;;;;;;6.70;2.13;;;;;;;24.68;73.27;101419.81;5076304;28;20037;-54
2022/09/02 08:51:00;;;;;;;10.60;1.90;;;;;;;24.75;72.81;101407.53;5070724;28;20028;-56
2022/09/02 08:53:32;;;;;;;14.67;2.00;;;;;;;24.78;72.62;101411.59;5075643;28;20040;-54
2022/09/02 08:56:02;;;;;;;15.77;1.90;;;;;;;25.09;70.86;101406.03;5073874;28;20041;-56
2022/09/02 08:58:36;;;;;;;7.97;1.50;;;;;;;25.16;70.43;101405.75;5075791;28;20040;-60
2022/09/02 09:01:20;;;;;;;5.93;1.80;;;;;;;25.01;71.42;101404.69;5075277;28;20037;-55
2022/09/02 09:04:08;;;;;;;6.47;1.80;;;;;;;25.23;69.96;101400.78;5069216;28;20033;-55
2022/09/02 09:07:12;;;;;;;8.17;1.93;;;;;;;25.52;68.58;101402.81;5071038;28;20048;-56
2022/09/02 09:10:05;;;;;;;8.10;1.67;;;;;;;25.43;69.04;101404.50;5067866;28;20037;-53
2022/09/02 09:12:57;;;;;;;6.90;1.50;;;;;;;25.58;68.77;101403.63;5073405;28;20036;-58
2022/09/02 09:15:42;;;;;;;5.07;1.50;;;;;;;25.76;68.10;101407.59;5071943;28;20143;-56
2022/09/02 09:18:15;;;;;;;12.50;1.70;;;;;;;25.59;68.96;101408.00;5071934;28;20092;-55
2022/09/02 09:20:42;;;;;;;7.80;2.03;;;;;;;25.89;68.15;101406.97;5071306;28;20060;-57
2022/09/02 09:23:29;;;;;;;5.67;1.80;;;;;;;25.90;68.71;101408.59;5069224;28;20029;-52
2022/09/02 09:26:07;;;;;;;5.57;2.35;;;;;;;26.00;68.65;101399.47;5066596;28;20028;-53
2022/09/02 09:28:49;;;;;;;10.20;2.20;;;;;;;26.24;67.51;101400.66;5069695;28;20044;-56
2022/09/02 09:31:20;;;;;;;6.10;1.90;;;;;;;26.23;67.06;101401.78;5069726;28;20100;-55
2022/09/02 09:34:10;;;;;;;6.40;2.17;;;;;;;26.33;67.55;101398.94;5070901;28;20067;-55
2022/09/02 09:37:05;;;;;;;6.97;1.20;;;;;;;26.56;66.16;101402.00;5069907;28;20046;-57
2022/09/02 09:39:31;;;;;;;4.20;2.43;;;;;;;26.47;66.90;101399.88;5065569;28;20056;-55
2022/09/02 09:42:02;;;;;;;10.57;1.70;;;;;;;27.38;63.70;101396.63;5070345;28;20056;-54
2022/09/02 09:44:36;;;;;;;3.23;1.50;;;;;;;27.60;61.51;101396.88;5069275;28;20046;-52
2022/09/02 09:47:05;;;;;;;6.80;2.20;;;;;;;27.70;61.22;101400.59;5075421;28;20122;-54
2022/09/02 09:49:32;;;;;;;7.00;2.17;;;;;;;27.85;60.84;101403.09;5069883;28;20047;-53
2022/09/02 09:51:58;;;;;;;9.97;2.03;;;;;;;27.74;60.54;101402.44;5070139;28;20065;-57
2022/09/02 09:54:26;;;;;;;6.27;1.70;;;;;;;27.72;60.49;101395.63;5068482;28;20110;-56
2022/09/02 09:57:11;;;;;;;13.17;2.47;;;;;;;28.06;58.77;101394.50;5066870;28;20045;-56
2022/09/02 09:59:46;;;;;;;4.50;2.00;;;;;;;28.26;58.25;101400.78;5065954;28;20112;-57
2022/09/02 10:02:24;;;;;;;10.33;1.90;;;;;;;28.81;56.63;101404.72;5070569;28;20028;-55
2022/09/02 10:05:08;;;;;;;12.70;2.40;;;;;;;29.26;54.25;101401.31;5071653;28;20028;-56
2022/09/02 10:07:40;;;;;;;9.32;2.30;;;;;;;29.58;52.56;101389.31;5071775;28;20088;-57
2022/09/02 10:10:32;;;;;;;3.20;2.00;;;;;;;29.62;52.25;101395.81;5073616;28;20033;-57
2022/09/02 10:13:17;;;;;;;4.72;1.95;;;;;;;30.10;51.32;101403.78;5062311;28;20079;-55
2022/09/02 10:16:13;;;;;;;4.25;1.92;;;;;;;30.38;49.98;101398.91;5072635;28;20087;-53
2022/09/02 10:18:47;;;;;;;8.63;1.88;;;;;;;30.64;48.98;101403.72;5059497;28;20044;-55
2022/09/02 10:21:42;;;;;;;9.57;1.95;;;;;;;30.46;48.28;101400.91;5065337;28;20041;-54
2022/09/02 10:24:30;;;;;;;12.48;6.30;;;;;;;31.44;47.04;101393.69;5068366;28;20424;-53
2022/09/02 10:26:58;;;;;;;44.33;25.80;;;;;;;31.71;46.04;101391.72;5072431;28;20111;-54
2022/09/02 10:30:03;;;;;;;61.42;36.70;;;;;;;32.38;43.90;101391.41;5069885;28;20115;-56
2022/09/02 10:32:28;;;;;;;35.72;19.17;;;;;;;32.33;43.71;101392.44;5061473;28;20060;-55
2022/09/02 10:35:10;;;;;;;38.47;20.90;;;;;;;32.65;42.52;101386.59;5066071;28;20033;-54
2022/09/02 10:37:54;;;;;;;31.63;17.85;;;;;;;32.78;42.50;101393.03;5068337;28;20037;-55
2022/09/02 10:40:31;;;;;;;88.28;46.78;;;;;;;32.90;42.24;101379.28;5068659;28;20025;-53
2022/09/02 10:43:04;;;;;;;44.58;24.77;;;;;;;33.00;41.87;101384.44;5066962;28;20075;-53
2022/09/02 10:45:34;;;;;;;73.25;39.92;;;;;;;33.17;41.64;101371.59;5065389;28;20056;-52
2022/09/02 10:48:27;;;;;;;49.05;26.60;;;;;;;33.40;41.22;101385.09;5065495;28;20148;-55
2022/09/02 10:51:25;;;;;;;28.50;12.10;;;;;;;33.36;40.77;101375.84;5066870;28;20037;-54
2022/09/02 10:54:10;;;;;;;28.70;11.10;;;;;;;33.99;39.93;101366.66;5063163;28;20049;-55
2022/09/02 10:56:52;;;;;;;9.00;2.85;;;;;;;33.24;40.16;101377.44;5063085;28;20033;-56
2022/09/02 10:59:28;;;;;;;7.07;3.13;;;;;;;33.68;38.89;101379.00;5073956;28;20105;-56
2022/09/02 11:02:13;;;;;;;8.20;4.00;;;;;;;33.63;39.30;101377.28;5078269;28;20052;-55
2022/09/02 11:04:52;;;;;;;;;;;;;;;34.11;38.54;101372.19;5076759;28;20048;-57
2022/09/02 11:07:29;;;;;;;38.30;24.10;;;;;;;34.49;38.40;101372.25;5070047;28;19912;-53
2022/09/02 11:10:02;;;;;;;25.55;17.65;;;;;;;35.06;36.81;101378.00;5063706;28;20032;-56
2022/09/02 11:12:48;;;;;;;12.30;5.60;;;;;;;34.91;36.62;101376.72;5068568;28;20100;-58
2022/09/02 11:15:23;;;;;;;12.52;7.32;;;;;;;35.70;35.89;101375.44;5066971;28;20013;-53
2022/09/02 11:18:12;;;;;;;11.55;4.63;;;;;;;35.79;35.02;101372.50;5066727;28;20097;-55
2022/09/02 11:20:49;;;;;;;7.35;3.13;;;;;;;36.01;34.64;101376.69;5069957;28;20033;-57
2022/09/02 11:23:42;;;;;;;7.80;1.90;;;;;;;35.85;33.89;101366.34;5063682;28;20028;-54
2022/09/02 11:26:29;;;;;;;7.68;1.70;;;;;;;35.55;33.59;101361.19;5066002;28;20041;-53
2022/09/02 11:29:05;;;;;;;6.10;1.60;;;;;;;36.13;33.28;101362.69;5066045;28;20051;-56
2022/09/02 11:31:46;;;;;;;4.55;1.90;;;;;;;36.51;32.60;101354.03;5065273;28;20032;-55
2022/09/02 11:34:33;;;;;;;4.50;1.77;;;;;;;36.99;32.60;101349.16;5067023;28;20152;-57
2022/09/02 11:37:02;;;;;;;3.15;1.70;;;;;;;37.41;30.84;101357.97;5065405;28;20041;-54
2022/09/02 11:39:36;;;;;;;7.80;1.60;;;;;;;37.53;30.96;101352.25;5064706;28;20037;-55
2022/09/02 11:42:29;;;;;;;3.40;1.45;;;;;;;37.66;31.83;101355.69;5065774;28;20041;-56
2022/09/02 11:45:46;;;;;;;5.13;1.50;;;;;;;37.78;30.54;101353.91;5075889;28;20063;-56